<?xml version="1.0" encoding="UTF-8" standalone="no" ?>
<gpx xmlns="http://www.topografix.com/GPX/1/1" xmlns:xsi="http://www.w3.org/2001/XMLSchema-instance" xsi:schemaLocation="http://www.topografix.com/GPX/1/1 http://www.topografix.com/GPX/1/1/gpx.xsd" version="1.1" creator="VisuGPX - https://www.visugpx.com">
  <metadata>
    <name>Talloires 7,5km 500d+</name>
  </metadata>
  <trk>
    <name><![CDATA[Talloires Course à pied 7,37 km - 1 oct.]]></name>
    <trkseg>
      <trkpt lat="45.83775" lon="6.2304">
        <ele>738</ele>
        <time>2021-09-30T23:46:49.051Z</time>
      </trkpt>
      <trkpt lat="45.83785" lon="6.23016">
        <ele>736</ele>
        <time>2021-09-30T23:46:50.665Z</time>
      </trkpt>
      <trkpt lat="45.83771" lon="6.23016">
        <ele>734</ele>
        <time>2021-09-30T23:46:52.284Z</time>
      </trkpt>
      <trkpt lat="45.83753" lon="6.22974">
        <ele>732</ele>
        <time>2021-09-30T23:46:53.914Z</time>
      </trkpt>
      <trkpt lat="45.83724" lon="6.2293">
        <ele>729</ele>
        <time>2021-09-30T23:46:55.558Z</time>
      </trkpt>
      <trkpt lat="45.83626" lon="6.22809">
        <ele>726</ele>
        <time>2021-09-30T23:46:57.245Z</time>
      </trkpt>
      <trkpt lat="45.83564" lon="6.22751">
        <ele>724</ele>
        <time>2021-09-30T23:46:58.957Z</time>
      </trkpt>
      <trkpt lat="45.83524" lon="6.22708">
        <ele>721</ele>
        <time>2021-09-30T23:47:04.132Z</time>
      </trkpt>
      <trkpt lat="45.83506" lon="6.22696">
        <ele>719</ele>
        <time>2021-09-30T23:47:05.867Z</time>
      </trkpt>
      <trkpt lat="45.83479" lon="6.22689">
        <ele>718</ele>
        <time>2021-09-30T23:47:07.612Z</time>
      </trkpt>
      <trkpt lat="45.8347" lon="6.22682">
        <ele>716</ele>
        <time>2021-09-30T23:47:09.360Z</time>
      </trkpt>
      <trkpt lat="45.83459" lon="6.22676">
        <ele>714</ele>
        <time>2021-09-30T23:47:11.112Z</time>
      </trkpt>
      <trkpt lat="45.83445" lon="6.22671">
        <ele>712</ele>
        <time>2021-09-30T23:47:12.869Z</time>
      </trkpt>
      <trkpt lat="45.83378" lon="6.22666">
        <ele>709</ele>
        <time>2021-09-30T23:47:14.648Z</time>
      </trkpt>
      <trkpt lat="45.83363" lon="6.22672">
        <ele>707</ele>
        <time>2021-09-30T23:47:16.432Z</time>
      </trkpt>
      <trkpt lat="45.83342" lon="6.22674">
        <ele>698</ele>
        <time>2021-09-30T23:47:21.795Z</time>
      </trkpt>
      <trkpt lat="45.83333" lon="6.22668">
        <ele>696</ele>
        <time>2021-09-30T23:47:23.589Z</time>
      </trkpt>
      <trkpt lat="45.83303" lon="6.22659">
        <ele>692</ele>
        <time>2021-09-30T23:47:25.394Z</time>
      </trkpt>
      <trkpt lat="45.8326" lon="6.22639">
        <ele>688</ele>
        <time>2021-09-30T23:47:27.214Z</time>
      </trkpt>
      <trkpt lat="45.83254" lon="6.22637">
        <ele>685</ele>
        <time>2021-09-30T23:47:29.036Z</time>
      </trkpt>
      <trkpt lat="45.83244" lon="6.2263">
        <ele>681</ele>
        <time>2021-09-30T23:47:30.862Z</time>
      </trkpt>
      <trkpt lat="45.83231" lon="6.22609">
        <ele>679</ele>
        <time>2021-09-30T23:47:32.694Z</time>
      </trkpt>
      <trkpt lat="45.83226" lon="6.22609">
        <ele>676</ele>
        <time>2021-09-30T23:47:34.528Z</time>
      </trkpt>
      <trkpt lat="45.83228" lon="6.22626">
        <ele>673</ele>
        <time>2021-09-30T23:47:36.366Z</time>
      </trkpt>
      <trkpt lat="45.83221" lon="6.22633">
        <ele>669</ele>
        <time>2021-09-30T23:47:38.206Z</time>
      </trkpt>
      <trkpt lat="45.83221" lon="6.2265">
        <ele>666</ele>
        <time>2021-09-30T23:47:40.050Z</time>
      </trkpt>
      <trkpt lat="45.83191" lon="6.22616">
        <ele>664</ele>
        <time>2021-09-30T23:47:41.907Z</time>
      </trkpt>
      <trkpt lat="45.83181" lon="6.22588">
        <ele>662</ele>
        <time>2021-09-30T23:47:43.772Z</time>
      </trkpt>
      <trkpt lat="45.83165" lon="6.2256">
        <ele>661</ele>
        <time>2021-09-30T23:47:45.645Z</time>
      </trkpt>
      <trkpt lat="45.83165" lon="6.22551">
        <ele>660</ele>
        <time>2021-09-30T23:47:47.520Z</time>
      </trkpt>
      <trkpt lat="45.83167" lon="6.22545">
        <ele>660</ele>
        <time>2021-09-30T23:47:49.397Z</time>
      </trkpt>
      <trkpt lat="45.83193" lon="6.22506">
        <ele>660</ele>
        <time>2021-09-30T23:47:51.286Z</time>
      </trkpt>
      <trkpt lat="45.83203" lon="6.22499">
        <ele>660</ele>
        <time>2021-09-30T23:47:53.179Z</time>
      </trkpt>
      <trkpt lat="45.83332" lon="6.22494">
        <ele>660</ele>
        <time>2021-09-30T23:47:55.115Z</time>
      </trkpt>
      <trkpt lat="45.8337" lon="6.22477">
        <ele>658</ele>
        <time>2021-09-30T23:47:57.064Z</time>
      </trkpt>
      <trkpt lat="45.8339" lon="6.22459">
        <ele>655</ele>
        <time>2021-09-30T23:47:59.021Z</time>
      </trkpt>
      <trkpt lat="45.83411" lon="6.22429">
        <ele>652</ele>
        <time>2021-09-30T23:48:00.988Z</time>
      </trkpt>
      <trkpt lat="45.83421" lon="6.22399">
        <ele>650</ele>
        <time>2021-09-30T23:48:02.963Z</time>
      </trkpt>
      <trkpt lat="45.83437" lon="6.22368">
        <ele>639</ele>
        <time>2021-09-30T23:48:08.903Z</time>
      </trkpt>
      <trkpt lat="45.83459" lon="6.22337">
        <ele>633</ele>
        <time>2021-09-30T23:48:10.897Z</time>
      </trkpt>
      <trkpt lat="45.83517" lon="6.22276">
        <ele>625</ele>
        <time>2021-09-30T23:48:12.915Z</time>
      </trkpt>
      <trkpt lat="45.83536" lon="6.22256">
        <ele>617</ele>
        <time>2021-09-30T23:48:14.941Z</time>
      </trkpt>
      <trkpt lat="45.83555" lon="6.22245">
        <ele>608</ele>
        <time>2021-09-30T23:48:16.974Z</time>
      </trkpt>
      <trkpt lat="45.83562" lon="6.22236">
        <ele>600</ele>
        <time>2021-09-30T23:48:19.010Z</time>
      </trkpt>
      <trkpt lat="45.83589" lon="6.22187">
        <ele>590</ele>
        <time>2021-09-30T23:48:21.061Z</time>
      </trkpt>
      <trkpt lat="45.83614" lon="6.22138">
        <ele>579</ele>
        <time>2021-09-30T23:48:23.126Z</time>
      </trkpt>
      <trkpt lat="45.83643" lon="6.22064">
        <ele>568</ele>
        <time>2021-09-30T23:48:25.210Z</time>
      </trkpt>
      <trkpt lat="45.83621" lon="6.22034">
        <ele>559</ele>
        <time>2021-09-30T23:48:27.305Z</time>
      </trkpt>
      <trkpt lat="45.83635" lon="6.22015">
        <ele>552</ele>
        <time>2021-09-30T23:48:29.406Z</time>
      </trkpt>
      <trkpt lat="45.83658" lon="6.21994">
        <ele>546</ele>
        <time>2021-09-30T23:48:31.517Z</time>
      </trkpt>
      <trkpt lat="45.83675" lon="6.21985">
        <ele>541</ele>
        <time>2021-09-30T23:48:33.634Z</time>
      </trkpt>
      <trkpt lat="45.83682" lon="6.21978">
        <ele>538</ele>
        <time>2021-09-30T23:48:37.872Z</time>
      </trkpt>
      <trkpt lat="45.83675" lon="6.21985">
        <ele>540</ele>
        <time>2021-09-30T23:48:39.994Z</time>
      </trkpt>
      <trkpt lat="45.83658" lon="6.21994">
        <ele>542</ele>
        <time>2021-09-30T23:48:42.122Z</time>
      </trkpt>
      <trkpt lat="45.83655" lon="6.21997">
        <ele>542</ele>
        <time>2021-09-30T23:48:46.380Z</time>
      </trkpt>
      <trkpt lat="45.83658" lon="6.21994">
        <ele>540</ele>
        <time>2021-09-30T23:48:48.511Z</time>
      </trkpt>
      <trkpt lat="45.83675" lon="6.21985">
        <ele>536</ele>
        <time>2021-09-30T23:48:50.648Z</time>
      </trkpt>
      <trkpt lat="45.83714" lon="6.21946">
        <ele>531</ele>
        <time>2021-09-30T23:48:52.800Z</time>
      </trkpt>
      <trkpt lat="45.83723" lon="6.21931">
        <ele>527</ele>
        <time>2021-09-30T23:48:54.957Z</time>
      </trkpt>
      <trkpt lat="45.83726" lon="6.21912">
        <ele>523</ele>
        <time>2021-09-30T23:48:57.119Z</time>
      </trkpt>
      <trkpt lat="45.83726" lon="6.21882">
        <ele>518</ele>
        <time>2021-09-30T23:48:59.288Z</time>
      </trkpt>
      <trkpt lat="45.83731" lon="6.21871">
        <ele>514</ele>
        <time>2021-09-30T23:49:01.460Z</time>
      </trkpt>
      <trkpt lat="45.83764" lon="6.21843">
        <ele>510</ele>
        <time>2021-09-30T23:49:03.645Z</time>
      </trkpt>
      <trkpt lat="45.83782" lon="6.21831">
        <ele>506</ele>
        <time>2021-09-30T23:49:05.836Z</time>
      </trkpt>
      <trkpt lat="45.83798" lon="6.21808">
        <ele>502</ele>
        <time>2021-09-30T23:49:08.035Z</time>
      </trkpt>
      <trkpt lat="45.83821" lon="6.21787">
        <ele>499</ele>
        <time>2021-09-30T23:49:10.243Z</time>
      </trkpt>
      <trkpt lat="45.83828" lon="6.21782">
        <ele>498</ele>
        <time>2021-09-30T23:49:12.453Z</time>
      </trkpt>
      <trkpt lat="45.83876" lon="6.21773">
        <ele>486.1</ele>
        <time>2021-09-30T23:44:06.000Z</time>
      </trkpt>
      <trkpt lat="45.83931" lon="6.21708">
        <ele>478.3</ele>
      </trkpt>
      <trkpt lat="45.83903" lon="6.21679">
        <ele>473.9</ele>
        <time>2021-09-30T23:44:07.893Z</time>
      </trkpt>
      <trkpt lat="45.83841" lon="6.21617">
        <ele>468</ele>
      </trkpt>
      <trkpt lat="45.83805" lon="6.21592">
        <ele>464</ele>
      </trkpt>
      <trkpt lat="45.83793" lon="6.21553">
        <ele>460.1</ele>
        <time>2021-09-30T23:44:08.038Z</time>
      </trkpt>
      <trkpt lat="45.83945" lon="6.21471">
        <ele>467.9</ele>
        <time>2021-09-30T23:44:08.189Z</time>
      </trkpt>
      <trkpt lat="45.83968" lon="6.21479">
        <ele>467.2</ele>
      </trkpt>
      <trkpt lat="45.83965" lon="6.21519">
        <ele>471</ele>
        <time>2021-09-30T23:44:08.344Z</time>
      </trkpt>
      <trkpt lat="45.83959" lon="6.2155">
        <ele>472</ele>
        <time>2021-09-30T23:44:08.507Z</time>
      </trkpt>
      <trkpt lat="45.83955" lon="6.21581">
        <ele>473</ele>
        <time>2021-09-30T23:44:08.677Z</time>
      </trkpt>
      <trkpt lat="45.83959" lon="6.2162">
        <ele>474</ele>
        <time>2021-09-30T23:44:08.856Z</time>
      </trkpt>
      <trkpt lat="45.83964" lon="6.21656">
        <ele>475</ele>
        <time>2021-09-30T23:44:09.043Z</time>
      </trkpt>
      <trkpt lat="45.8397" lon="6.21655">
        <ele>476</ele>
        <time>2021-09-30T23:44:09.233Z</time>
      </trkpt>
      <trkpt lat="45.83976" lon="6.21659">
        <ele>477</ele>
        <time>2021-09-30T23:44:09.425Z</time>
      </trkpt>
      <trkpt lat="45.83979" lon="6.21672">
        <ele>479</ele>
        <time>2021-09-30T23:44:09.620Z</time>
      </trkpt>
      <trkpt lat="45.84014" lon="6.21657">
        <ele>480</ele>
        <time>2021-09-30T23:44:09.827Z</time>
      </trkpt>
      <trkpt lat="45.84057" lon="6.21625">
        <ele>481</ele>
        <time>2021-09-30T23:44:10.050Z</time>
      </trkpt>
      <trkpt lat="45.84077" lon="6.21609">
        <ele>483</ele>
        <time>2021-09-30T23:44:10.281Z</time>
      </trkpt>
      <trkpt lat="45.84069" lon="6.21634">
        <ele>485</ele>
        <time>2021-09-30T23:44:10.518Z</time>
      </trkpt>
      <trkpt lat="45.84065" lon="6.21663">
        <ele>488</ele>
        <time>2021-09-30T23:44:10.762Z</time>
      </trkpt>
      <trkpt lat="45.84069" lon="6.21662">
        <ele>490</ele>
        <time>2021-09-30T23:44:11.007Z</time>
      </trkpt>
      <trkpt lat="45.84088" lon="6.21649">
        <ele>494</ele>
        <time>2021-09-30T23:44:11.259Z</time>
      </trkpt>
      <trkpt lat="45.84095" lon="6.2165">
        <ele>497</ele>
        <time>2021-09-30T23:44:11.514Z</time>
      </trkpt>
      <trkpt lat="45.84126" lon="6.2168">
        <ele>502</ele>
        <time>2021-09-30T23:44:11.781Z</time>
      </trkpt>
      <trkpt lat="45.84137" lon="6.21688">
        <ele>507</ele>
        <time>2021-09-30T23:44:12.052Z</time>
      </trkpt>
      <trkpt lat="45.84148" lon="6.21692">
        <ele>511</ele>
        <time>2021-09-30T23:44:12.327Z</time>
      </trkpt>
      <trkpt lat="45.84197" lon="6.21696">
        <ele>517</ele>
        <time>2021-09-30T23:44:12.618Z</time>
      </trkpt>
      <trkpt lat="45.84216" lon="6.21704">
        <ele>520</ele>
        <time>2021-09-30T23:44:12.916Z</time>
      </trkpt>
      <trkpt lat="45.84265" lon="6.21718">
        <ele>530</ele>
        <time>2021-09-30T23:44:13.831Z</time>
      </trkpt>
      <trkpt lat="45.8427" lon="6.21717">
        <ele>534</ele>
        <time>2021-09-30T23:44:14.147Z</time>
      </trkpt>
      <trkpt lat="45.84279" lon="6.21711">
        <ele>538</ele>
        <time>2021-09-30T23:44:14.467Z</time>
      </trkpt>
      <trkpt lat="45.84285" lon="6.21715">
        <ele>543</ele>
        <time>2021-09-30T23:44:14.789Z</time>
      </trkpt>
      <trkpt lat="45.84302" lon="6.21744">
        <ele>549</ele>
        <time>2021-09-30T23:44:15.119Z</time>
      </trkpt>
      <trkpt lat="45.84323" lon="6.21762">
        <ele>556</ele>
        <time>2021-09-30T23:44:15.458Z</time>
      </trkpt>
      <trkpt lat="45.84338" lon="6.21788">
        <ele>563</ele>
        <time>2021-09-30T23:44:15.804Z</time>
      </trkpt>
      <trkpt lat="45.84369" lon="6.21836">
        <ele>573</ele>
        <time>2021-09-30T23:44:16.166Z</time>
      </trkpt>
      <trkpt lat="45.84392" lon="6.2188">
        <ele>582</ele>
        <time>2021-09-30T23:44:16.541Z</time>
      </trkpt>
      <trkpt lat="45.84405" lon="6.21923">
        <ele>592</ele>
        <time>2021-09-30T23:44:16.926Z</time>
      </trkpt>
      <trkpt lat="45.84415" lon="6.21952">
        <ele>602</ele>
        <time>2021-09-30T23:44:17.319Z</time>
      </trkpt>
      <trkpt lat="45.8442" lon="6.21977">
        <ele>611</ele>
        <time>2021-09-30T23:44:17.718Z</time>
      </trkpt>
      <trkpt lat="45.84418" lon="6.21999">
        <ele>619</ele>
        <time>2021-09-30T23:44:18.122Z</time>
      </trkpt>
      <trkpt lat="45.84426" lon="6.22012">
        <ele>627</ele>
        <time>2021-09-30T23:44:18.530Z</time>
      </trkpt>
      <trkpt lat="45.8444" lon="6.22016">
        <ele>633</ele>
        <time>2021-09-30T23:44:18.943Z</time>
      </trkpt>
      <trkpt lat="45.84454" lon="6.22026">
        <ele>640</ele>
        <time>2021-09-30T23:44:19.361Z</time>
      </trkpt>
      <trkpt lat="45.84464" lon="6.22027">
        <ele>645</ele>
        <time>2021-09-30T23:44:19.782Z</time>
      </trkpt>
      <trkpt lat="45.84483" lon="6.22042">
        <ele>651</ele>
        <time>2021-09-30T23:44:20.211Z</time>
      </trkpt>
      <trkpt lat="45.84497" lon="6.22047">
        <ele>655</ele>
        <time>2021-09-30T23:44:20.645Z</time>
      </trkpt>
      <trkpt lat="45.84441" lon="6.22065">
        <ele>660</ele>
        <time>2021-09-30T23:44:21.098Z</time>
      </trkpt>
      <trkpt lat="45.84396" lon="6.22074">
        <ele>664</ele>
        <time>2021-09-30T23:44:21.566Z</time>
      </trkpt>
      <trkpt lat="45.84369" lon="6.22075">
        <ele>662</ele>
        <time>2021-09-30T23:44:22.989Z</time>
      </trkpt>
      <trkpt lat="45.84278" lon="6.2212">
        <ele>664</ele>
        <time>2021-09-30T23:44:23.498Z</time>
      </trkpt>
      <trkpt lat="45.84249" lon="6.22146">
        <ele>665</ele>
        <time>2021-09-30T23:44:24.018Z</time>
      </trkpt>
      <trkpt lat="45.84224" lon="6.22147">
        <ele>664</ele>
        <time>2021-09-30T23:44:24.547Z</time>
      </trkpt>
      <trkpt lat="45.84213" lon="6.22153">
        <ele>664</ele>
        <time>2021-09-30T23:44:25.080Z</time>
      </trkpt>
      <trkpt lat="45.84201" lon="6.22167">
        <ele>664</ele>
        <time>2021-09-30T23:44:25.618Z</time>
      </trkpt>
      <trkpt lat="45.84195" lon="6.22181">
        <ele>665</ele>
        <time>2021-09-30T23:44:26.160Z</time>
      </trkpt>
      <trkpt lat="45.84192" lon="6.2219">
        <ele>666</ele>
        <time>2021-09-30T23:44:26.704Z</time>
      </trkpt>
      <trkpt lat="45.84199" lon="6.22201">
        <ele>668</ele>
        <time>2021-09-30T23:44:27.251Z</time>
      </trkpt>
      <trkpt lat="45.8421" lon="6.22182">
        <ele>671</ele>
        <time>2021-09-30T23:44:27.804Z</time>
      </trkpt>
      <trkpt lat="45.84225" lon="6.22168">
        <ele>674</ele>
        <time>2021-09-30T23:44:28.363Z</time>
      </trkpt>
      <trkpt lat="45.84233" lon="6.2217">
        <ele>678</ele>
        <time>2021-09-30T23:44:28.925Z</time>
      </trkpt>
      <trkpt lat="45.84248" lon="6.22181">
        <ele>683</ele>
        <time>2021-09-30T23:44:29.492Z</time>
      </trkpt>
      <trkpt lat="45.8425" lon="6.22187">
        <ele>686</ele>
        <time>2021-09-30T23:44:30.061Z</time>
      </trkpt>
      <trkpt lat="45.84249" lon="6.22194">
        <ele>690</ele>
        <time>2021-09-30T23:44:30.632Z</time>
      </trkpt>
      <trkpt lat="45.84231" lon="6.22221">
        <ele>693</ele>
        <time>2021-09-30T23:44:31.211Z</time>
      </trkpt>
      <trkpt lat="45.84205" lon="6.22255">
        <ele>695</ele>
        <time>2021-09-30T23:44:31.802Z</time>
      </trkpt>
      <trkpt lat="45.84198" lon="6.22283">
        <ele>701</ele>
        <time>2021-09-30T23:44:32.998Z</time>
      </trkpt>
      <trkpt lat="45.84197" lon="6.22293">
        <ele>704</ele>
        <time>2021-09-30T23:44:33.598Z</time>
      </trkpt>
      <trkpt lat="45.84196" lon="6.22327">
        <ele>707</ele>
        <time>2021-09-30T23:44:34.206Z</time>
      </trkpt>
      <trkpt lat="45.84202" lon="6.22327">
        <ele>710</ele>
        <time>2021-09-30T23:44:34.816Z</time>
      </trkpt>
      <trkpt lat="45.84207" lon="6.22334">
        <ele>712</ele>
        <time>2021-09-30T23:44:35.429Z</time>
      </trkpt>
      <trkpt lat="45.84209" lon="6.22348">
        <ele>715</ele>
        <time>2021-09-30T23:44:36.045Z</time>
      </trkpt>
      <trkpt lat="45.84209" lon="6.22363">
        <ele>718</ele>
        <time>2021-09-30T23:44:36.665Z</time>
      </trkpt>
      <trkpt lat="45.8421" lon="6.22367">
        <ele>721</ele>
        <time>2021-09-30T23:44:37.286Z</time>
      </trkpt>
      <trkpt lat="45.84214" lon="6.22368">
        <ele>724</ele>
        <time>2021-09-30T23:44:37.908Z</time>
      </trkpt>
      <trkpt lat="45.84253" lon="6.22329">
        <ele>728</ele>
        <time>2021-09-30T23:44:38.546Z</time>
      </trkpt>
      <trkpt lat="45.8426" lon="6.22325">
        <ele>730</ele>
        <time>2021-09-30T23:44:39.186Z</time>
      </trkpt>
      <trkpt lat="45.84266" lon="6.22325">
        <ele>733</ele>
        <time>2021-09-30T23:44:39.829Z</time>
      </trkpt>
      <trkpt lat="45.84273" lon="6.22329">
        <ele>735</ele>
        <time>2021-09-30T23:44:40.474Z</time>
      </trkpt>
      <trkpt lat="45.84275" lon="6.22335">
        <ele>736</ele>
        <time>2021-09-30T23:44:41.120Z</time>
      </trkpt>
      <trkpt lat="45.84277" lon="6.22338">
        <ele>738</ele>
        <time>2021-09-30T23:44:42.414Z</time>
      </trkpt>
      <trkpt lat="45.84286" lon="6.22372">
        <ele>739</ele>
        <time>2021-09-30T23:44:43.070Z</time>
      </trkpt>
      <trkpt lat="45.84317" lon="6.2247">
        <ele>751</ele>
        <time>2021-09-30T23:44:45.089Z</time>
      </trkpt>
      <trkpt lat="45.84336" lon="6.22517">
        <ele>754</ele>
        <time>2021-09-30T23:44:45.783Z</time>
      </trkpt>
      <trkpt lat="45.84354" lon="6.22545">
        <ele>757</ele>
        <time>2021-09-30T23:44:46.486Z</time>
      </trkpt>
      <trkpt lat="45.84373" lon="6.22587">
        <ele>761</ele>
        <time>2021-09-30T23:44:47.200Z</time>
      </trkpt>
      <trkpt lat="45.8438" lon="6.22594">
        <ele>765</ele>
        <time>2021-09-30T23:44:47.917Z</time>
      </trkpt>
      <trkpt lat="45.84402" lon="6.22601">
        <ele>770</ele>
        <time>2021-09-30T23:44:48.642Z</time>
      </trkpt>
      <trkpt lat="45.84432" lon="6.22605">
        <ele>775</ele>
        <time>2021-09-30T23:44:49.377Z</time>
      </trkpt>
      <trkpt lat="45.84447" lon="6.22602">
        <ele>779</ele>
        <time>2021-09-30T23:44:50.117Z</time>
      </trkpt>
      <trkpt lat="45.84454" lon="6.22598">
        <ele>783</ele>
        <time>2021-09-30T23:44:50.859Z</time>
      </trkpt>
      <trkpt lat="45.84469" lon="6.22597">
        <ele>787</ele>
        <time>2021-09-30T23:44:51.606Z</time>
      </trkpt>
      <trkpt lat="45.84491" lon="6.22605">
        <ele>791</ele>
        <time>2021-09-30T23:44:52.361Z</time>
      </trkpt>
      <trkpt lat="45.84507" lon="6.22619">
        <ele>795</ele>
        <time>2021-09-30T23:44:53.122Z</time>
      </trkpt>
      <trkpt lat="45.84524" lon="6.22623">
        <ele>798</ele>
        <time>2021-09-30T23:44:53.889Z</time>
      </trkpt>
      <trkpt lat="45.84554" lon="6.22621">
        <ele>804</ele>
        <time>2021-09-30T23:44:55.435Z</time>
      </trkpt>
      <trkpt lat="45.84593" lon="6.22608">
        <ele>810</ele>
        <time>2021-09-30T23:44:57.003Z</time>
      </trkpt>
      <trkpt lat="45.84606" lon="6.22595">
        <ele>813</ele>
        <time>2021-09-30T23:44:57.798Z</time>
      </trkpt>
      <trkpt lat="45.84623" lon="6.22593">
        <ele>816</ele>
        <time>2021-09-30T23:44:58.599Z</time>
      </trkpt>
      <trkpt lat="45.8463" lon="6.22695">
        <ele>820</ele>
        <time>2021-09-30T23:44:59.424Z</time>
      </trkpt>
      <trkpt lat="45.84624" lon="6.22745">
        <ele>823</ele>
        <time>2021-09-30T23:45:00.261Z</time>
      </trkpt>
      <trkpt lat="45.84624" lon="6.22774">
        <ele>826</ele>
        <time>2021-09-30T23:45:01.104Z</time>
      </trkpt>
      <trkpt lat="45.8463" lon="6.22835">
        <ele>830</ele>
        <time>2021-09-30T23:45:01.962Z</time>
      </trkpt>
      <trkpt lat="45.84603" lon="6.22814">
        <ele>833</ele>
        <time>2021-09-30T23:45:02.830Z</time>
      </trkpt>
      <trkpt lat="45.84597" lon="6.22827">
        <ele>837</ele>
        <time>2021-09-30T23:45:03.702Z</time>
      </trkpt>
      <trkpt lat="45.84606" lon="6.22841">
        <ele>842</ele>
        <time>2021-09-30T23:45:04.578Z</time>
      </trkpt>
      <trkpt lat="45.84607" lon="6.2287">
        <ele>847</ele>
        <time>2021-09-30T23:45:05.461Z</time>
      </trkpt>
      <trkpt lat="45.84615" lon="6.22935">
        <ele>855</ele>
        <time>2021-09-30T23:45:06.359Z</time>
      </trkpt>
      <trkpt lat="45.84629" lon="6.22958">
        <ele>861</ele>
        <time>2021-09-30T23:45:07.264Z</time>
      </trkpt>
      <trkpt lat="45.84642" lon="6.22989">
        <ele>867</ele>
        <time>2021-09-30T23:45:08.178Z</time>
      </trkpt>
      <trkpt lat="45.84623" lon="6.23049">
        <ele>873</ele>
        <time>2021-09-30T23:45:09.107Z</time>
      </trkpt>
      <trkpt lat="45.84619" lon="6.23084">
        <ele>878</ele>
        <time>2021-09-30T23:45:10.044Z</time>
      </trkpt>
      <trkpt lat="45.84629" lon="6.23121">
        <ele>884</ele>
        <time>2021-09-30T23:45:10.990Z</time>
      </trkpt>
      <trkpt lat="45.84624" lon="6.23161">
        <ele>888</ele>
        <time>2021-09-30T23:45:11.946Z</time>
      </trkpt>
      <trkpt lat="45.84645" lon="6.23228">
        <ele>892</ele>
        <time>2021-09-30T23:45:12.919Z</time>
      </trkpt>
      <trkpt lat="45.84665" lon="6.23277">
        <ele>896</ele>
        <time>2021-09-30T23:45:13.905Z</time>
      </trkpt>
      <trkpt lat="45.84669" lon="6.23366">
        <ele>896</ele>
        <time>2021-09-30T23:45:16.908Z</time>
      </trkpt>
      <trkpt lat="45.84673" lon="6.23515">
        <ele>897</ele>
        <time>2021-09-30T23:45:17.950Z</time>
      </trkpt>
      <trkpt lat="45.84661" lon="6.23558">
        <ele>897</ele>
        <time>2021-09-30T23:45:19.003Z</time>
      </trkpt>
      <trkpt lat="45.84659" lon="6.236">
        <ele>898</ele>
        <time>2021-09-30T23:45:20.065Z</time>
      </trkpt>
      <trkpt lat="45.84649" lon="6.23614">
        <ele>899</ele>
        <time>2021-09-30T23:45:21.132Z</time>
      </trkpt>
      <trkpt lat="45.84634" lon="6.23613">
        <ele>899</ele>
        <time>2021-09-30T23:45:22.204Z</time>
      </trkpt>
      <trkpt lat="45.84608" lon="6.23572">
        <ele>899</ele>
        <time>2021-09-30T23:45:23.289Z</time>
      </trkpt>
      <trkpt lat="45.8456" lon="6.2349">
        <ele>897</ele>
        <time>2021-09-30T23:45:24.399Z</time>
      </trkpt>
      <trkpt lat="45.84535" lon="6.23472">
        <ele>898</ele>
        <time>2021-09-30T23:45:25.518Z</time>
      </trkpt>
      <trkpt lat="45.84504" lon="6.23463">
        <ele>900</ele>
        <time>2021-09-30T23:45:26.648Z</time>
      </trkpt>
      <trkpt lat="45.84394" lon="6.23498">
        <ele>904</ele>
        <time>2021-09-30T23:45:27.815Z</time>
      </trkpt>
      <trkpt lat="45.84278" lon="6.23539">
        <ele>907</ele>
        <time>2021-09-30T23:45:29.022Z</time>
      </trkpt>
      <trkpt lat="45.84249" lon="6.23589">
        <ele>911</ele>
        <time>2021-09-30T23:45:30.244Z</time>
      </trkpt>
      <trkpt lat="45.84241" lon="6.23632">
        <ele>914</ele>
        <time>2021-09-30T23:45:31.476Z</time>
      </trkpt>
      <trkpt lat="45.84233" lon="6.23666">
        <ele>920</ele>
        <time>2021-09-30T23:45:32.717Z</time>
      </trkpt>
      <trkpt lat="45.84224" lon="6.23753">
        <ele>922</ele>
        <time>2021-09-30T23:45:33.978Z</time>
      </trkpt>
      <trkpt lat="45.84181" lon="6.23871">
        <ele>923</ele>
        <time>2021-09-30T23:45:35.270Z</time>
      </trkpt>
      <trkpt lat="45.84173" lon="6.2391">
        <ele>925</ele>
        <time>2021-09-30T23:45:36.572Z</time>
      </trkpt>
      <trkpt lat="45.84172" lon="6.23941">
        <ele>927</ele>
        <time>2021-09-30T23:45:37.881Z</time>
      </trkpt>
      <trkpt lat="45.84175" lon="6.23985">
        <ele>929</ele>
        <time>2021-09-30T23:45:40.512Z</time>
      </trkpt>
      <trkpt lat="45.8418" lon="6.23997">
        <ele>929</ele>
        <time>2021-09-30T23:45:41.834Z</time>
      </trkpt>
      <trkpt lat="45.84174" lon="6.24001">
        <ele>928</ele>
        <time>2021-09-30T23:45:43.158Z</time>
      </trkpt>
      <trkpt lat="45.84156" lon="6.23991">
        <ele>926</ele>
        <time>2021-09-30T23:45:44.489Z</time>
      </trkpt>
      <trkpt lat="45.84153" lon="6.23976">
        <ele>925</ele>
        <time>2021-09-30T23:45:45.824Z</time>
      </trkpt>
      <trkpt lat="45.84154" lon="6.23961">
        <ele>924</ele>
        <time>2021-09-30T23:45:47.162Z</time>
      </trkpt>
      <trkpt lat="45.84154" lon="6.2394">
        <ele>922</ele>
        <time>2021-09-30T23:45:48.505Z</time>
      </trkpt>
      <trkpt lat="45.84149" lon="6.23929">
        <ele>902</ele>
        <time>2021-09-30T23:45:51.197Z</time>
      </trkpt>
      <trkpt lat="45.84141" lon="6.2392">
        <ele>895</ele>
        <time>2021-09-30T23:45:53.892Z</time>
      </trkpt>
      <trkpt lat="45.84118" lon="6.23884">
        <ele>890</ele>
        <time>2021-09-30T23:45:55.253Z</time>
      </trkpt>
      <trkpt lat="45.84106" lon="6.23871">
        <ele>884</ele>
        <time>2021-09-30T23:45:56.619Z</time>
      </trkpt>
      <trkpt lat="45.84092" lon="6.23824">
        <ele>877</ele>
        <time>2021-09-30T23:45:57.997Z</time>
      </trkpt>
      <trkpt lat="45.84082" lon="6.2381">
        <ele>871</ele>
        <time>2021-09-30T23:45:59.380Z</time>
      </trkpt>
      <trkpt lat="45.84064" lon="6.23794">
        <ele>865</ele>
        <time>2021-09-30T23:46:00.770Z</time>
      </trkpt>
      <trkpt lat="45.8404" lon="6.23757">
        <ele>853</ele>
        <time>2021-09-30T23:46:03.565Z</time>
      </trkpt>
      <trkpt lat="45.84014" lon="6.2374">
        <ele>847</ele>
        <time>2021-09-30T23:46:04.976Z</time>
      </trkpt>
      <trkpt lat="45.84001" lon="6.23719">
        <ele>840</ele>
        <time>2021-09-30T23:46:06.393Z</time>
      </trkpt>
      <trkpt lat="45.83979" lon="6.23686">
        <ele>833</ele>
        <time>2021-09-30T23:46:07.821Z</time>
      </trkpt>
      <trkpt lat="45.83976" lon="6.2366">
        <ele>826</ele>
        <time>2021-09-30T23:46:09.255Z</time>
      </trkpt>
      <trkpt lat="45.83956" lon="6.23617">
        <ele>819</ele>
        <time>2021-09-30T23:46:10.701Z</time>
      </trkpt>
      <trkpt lat="45.83936" lon="6.23589">
        <ele>812</ele>
        <time>2021-09-30T23:46:12.156Z</time>
      </trkpt>
      <trkpt lat="45.83908" lon="6.23556">
        <ele>805</ele>
        <time>2021-09-30T23:46:13.624Z</time>
      </trkpt>
      <trkpt lat="45.83894" lon="6.23526">
        <ele>799</ele>
        <time>2021-09-30T23:46:15.100Z</time>
      </trkpt>
      <trkpt lat="45.83889" lon="6.23513">
        <ele>794</ele>
        <time>2021-09-30T23:46:16.579Z</time>
      </trkpt>
      <trkpt lat="45.83868" lon="6.23417">
        <ele>785</ele>
        <time>2021-09-30T23:46:19.579Z</time>
      </trkpt>
      <trkpt lat="45.83852" lon="6.23399">
        <ele>778</ele>
        <time>2021-09-30T23:46:22.595Z</time>
      </trkpt>
      <trkpt lat="45.83836" lon="6.2337">
        <ele>773</ele>
        <time>2021-09-30T23:46:27.133Z</time>
      </trkpt>
      <trkpt lat="45.83825" lon="6.23339">
        <ele>770.2</ele>
      </trkpt>
      <trkpt lat="45.83813" lon="6.23327">
        <ele>764</ele>
        <time>2021-09-30T23:46:31.710Z</time>
      </trkpt>
      <trkpt lat="45.83797" lon="6.23263">
        <ele>761</ele>
        <time>2021-09-30T23:46:33.257Z</time>
      </trkpt>
      <trkpt lat="45.83787" lon="6.23245">
        <ele>758</ele>
        <time>2021-09-30T23:46:34.810Z</time>
      </trkpt>
      <trkpt lat="45.83761" lon="6.23216">
        <ele>755</ele>
        <time>2021-09-30T23:46:36.373Z</time>
      </trkpt>
      <trkpt lat="45.83762" lon="6.232">
        <ele>752</ele>
        <time>2021-09-30T23:46:37.940Z</time>
      </trkpt>
      <trkpt lat="45.8376" lon="6.23191">
        <ele>750</ele>
        <time>2021-09-30T23:46:39.509Z</time>
      </trkpt>
      <trkpt lat="45.8376" lon="6.23171">
        <ele>748</ele>
        <time>2021-09-30T23:46:41.083Z</time>
      </trkpt>
      <trkpt lat="45.83762" lon="6.23161">
        <ele>746</ele>
        <time>2021-09-30T23:46:42.659Z</time>
      </trkpt>
      <trkpt lat="45.8378" lon="6.23119">
        <ele>745</ele>
        <time>2021-09-30T23:46:44.247Z</time>
      </trkpt>
      <trkpt lat="45.83786" lon="6.23085">
        <ele>743</ele>
        <time>2021-09-30T23:46:45.843Z</time>
      </trkpt>
      <trkpt lat="45.83787" lon="6.2307">
        <ele>741</ele>
        <time>2021-09-30T23:46:47.443Z</time>
      </trkpt>
      <trkpt lat="45.83787" lon="6.2307">
        <ele>741</ele>
        <time>2021-09-30T23:46:47.443Z</time>
      </trkpt>
      <trkpt lat="45.83775" lon="6.2304">
        <ele>738</ele>
        <time>2021-09-30T23:46:49.051Z</time>
      </trkpt>
    </trkseg>
  </trk>
</gpx>